createdAt,value
2018-12-22T00:03:08.717Z,37.92
2018-12-22T00:08:19.567Z,37.74
2018-12-22T00:11:14.546Z,37.98
2018-12-22T00:16:27.612Z,37.80
2018-12-22T00:18:58.360Z,37.81
2018-12-22T00:27:21.219Z,37.86
2018-12-22T00:32:32.356Z,38.08
2018-12-22T00:37:47.356Z,37.80
2018-12-22T00:42:58.738Z,38.00
2018-12-22T00:48:09.877Z,38.22
2018-12-22T00:53:20.638Z,37.84
2018-12-22T00:58:31.595Z,38.21
2018-12-22T01:03:57.308Z,38.08
2018-12-22T01:09:09.498Z,38.29
2018-12-22T01:14:37.576Z,37.92
2018-12-22T01:19:49.987Z,37.99
2018-12-22T01:25:00.449Z,38.29
2018-12-22T01:30:11.664Z,38.10
2018-12-22T01:35:22.704Z,37.89
2018-12-22T01:40:35.375Z,38.36
2018-12-22T01:45:49.315Z,38.29
2018-12-22T01:51:06.769Z,38.14
2018-12-22T01:56:17.897Z,38.22
2018-12-22T02:07:20.666Z,38.21
2018-12-22T02:12:31.585Z,38.33
2018-12-22T02:17:44.220Z,38.44
2018-12-22T02:22:55.660Z,38.25
2018-12-22T02:28:06.565Z,38.11
2018-12-22T02:33:18.899Z,38.60
2018-12-22T02:38:30.635Z,38.47
2018-12-22T02:43:44.787Z,38.59
2018-12-22T02:48:55.889Z,38.14
2018-12-22T02:57:19.009Z,38.49
2018-12-22T03:02:30.127Z,38.27
2018-12-22T03:07:41.657Z,38.25
2018-12-22T03:12:58.601Z,38.26
2018-12-22T03:18:09.563Z,38.40
2018-12-22T03:23:20.498Z,38.25
2018-12-22T03:28:31.648Z,38.34
2018-12-22T03:33:50.827Z,38.27
2018-12-22T03:39:01.985Z,38.43
2018-12-22T03:47:22.229Z,38.56
2018-12-22T03:52:32.991Z,38.64
2018-12-22T03:57:43.657Z,38.57
2018-12-22T04:02:58.770Z,38.44
2018-12-22T04:08:09.885Z,38.62
2018-12-22T04:13:53.711Z,38.62
2018-12-22T04:19:04.809Z,38.35
2018-12-22T04:24:30.004Z,38.31
2018-12-22T04:29:41.423Z,38.41
2018-12-22T04:34:51.809Z,38.56
2018-12-22T04:40:04.865Z,38.78
2018-12-22T04:45:16.227Z,38.83
2018-12-22T04:50:27.691Z,38.41
2018-12-22T04:55:38.623Z,38.65
2018-12-22T05:01:03.826Z,38.84
2018-12-22T05:06:16.058Z,38.78
2018-12-22T05:11:27.636Z,38.87
2018-12-22T05:16:38.787Z,38.98
2018-12-22T05:27:42.764Z,39.06
2018-12-22T05:32:55.848Z,38.93
2018-12-22T05:38:08.229Z,38.68
2018-12-22T05:43:18.907Z,38.83
2018-12-22T05:48:30.392Z,38.62
2018-12-22T05:53:48.226Z,38.21
2018-12-22T05:58:59.669Z,39.13
2018-12-22T06:04:11.230Z,24.16
2018-12-22T06:09:22.669Z,14.82
2018-12-22T06:14:54.216Z,12.06
2018-12-22T06:20:11.688Z,11.50
2018-12-22T06:25:23.211Z,11.29
2018-12-22T06:30:34.616Z,12.65
2018-12-22T06:35:46.208Z,13.99
2018-12-22T06:41:07.625Z,16.17
2018-12-22T06:46:18.622Z,18.18
2018-12-22T06:57:22.635Z,21.76
2018-12-22T07:02:36.597Z,23.63
2018-12-22T07:07:48.687Z,24.74
2018-12-22T07:13:01.342Z,26.01
2018-12-22T07:18:13.684Z,27.12
2018-12-22T07:23:47.628Z,28.39
2018-12-22T07:28:58.608Z,29.38
2018-12-22T07:34:36.808Z,30.17
2018-12-22T07:39:48.486Z,31.34
2018-12-22T07:44:59.690Z,31.96
2018-12-22T07:52:51.987Z,32.42
2018-12-22T07:58:03.643Z,28.51
2018-12-22T08:03:15.600Z,25.03
2018-12-22T08:08:26.652Z,23.45
2018-12-22T08:13:49.685Z,23.05
2018-12-22T08:19:00.770Z,23.51
2018-12-22T08:24:24.676Z,25.18
2018-12-22T08:29:35.909Z,25.98
2018-12-22T08:38:05.028Z,27.90
2018-12-22T08:43:15.859Z,29.01
2018-12-22T08:48:26.675Z,30.17
2018-12-22T08:53:58.677Z,31.16
2018-12-22T08:59:09.943Z,31.81
2018-12-22T09:07:28.637Z,32.02
2018-12-22T09:12:43.003Z,32.17
2018-12-22T09:17:53.634Z,32.70
2018-12-22T09:23:06.777Z,33.26
2018-12-22T09:28:17.905Z,33.51
2018-12-22T09:33:29.822Z,33.85
2018-12-22T09:38:41.354Z,34.16
2018-12-22T09:43:53.626Z,34.79
2018-12-22T09:49:06.235Z,34.86
2018-12-22T09:54:30.301Z,35.53
2018-12-22T09:59:46.552Z,35.58
2018-12-22T10:04:57.597Z,35.93
2018-12-22T10:10:18.607Z,35.89
2018-12-22T10:15:29.623Z,36.60
2018-12-22T10:20:47.010Z,36.36
2018-12-22T10:25:57.777Z,36.79
2018-12-22T10:31:17.968Z,36.82
2018-12-22T10:36:31.563Z,36.99
2018-12-22T10:42:03.665Z,36.54
2018-12-22T10:47:14.592Z,36.58
2018-12-22T10:52:25.610Z,36.71
2018-12-22T10:57:37.600Z,36.67
2018-12-22T11:02:54.639Z,36.69
2018-12-22T11:08:06.053Z,37.16
2018-12-22T11:13:22.595Z,37.14
2018-12-22T11:18:34.317Z,37.17
2018-12-22T11:23:45.033Z,36.95
2018-12-22T11:28:57.393Z,36.97
2018-12-22T11:34:08.745Z,37.04
2018-12-22T11:39:20.605Z,36.99
2018-12-22T11:44:56.300Z,37.11
2018-12-22T11:50:29.435Z,37.11
2018-12-22T11:56:06.685Z,37.34
2018-12-22T12:01:18.875Z,37.38
2018-12-22T12:06:30.977Z,37.48
2018-12-22T12:11:42.485Z,37.61
2018-12-22T12:17:17.664Z,38.00
2018-12-22T12:22:28.615Z,37.87
2018-12-22T12:27:39.843Z,37.91
2018-12-22T12:32:51.983Z,38.10
2018-12-22T12:38:02.809Z,38.07
2018-12-22T12:43:27.208Z,38.31
2018-12-22T12:48:38.773Z,38.00
2018-12-22T12:53:52.960Z,38.17
2018-12-22T12:59:03.663Z,38.24
2018-12-22T13:04:14.874Z,31.85
2018-12-22T13:09:26.444Z,17.82
2018-12-22T13:14:50.329Z,14.08
2018-12-22T13:20:01.539Z,13.09
2018-12-22T13:25:12.490Z,13.95
2018-12-22T13:30:34.465Z,15.68
2018-12-22T13:35:44.565Z,17.52
2018-12-22T13:41:01.807Z,19.25
2018-12-22T13:46:13.557Z,21.22
2018-12-22T13:51:27.754Z,22.35
2018-12-22T13:56:41.625Z,24.35
2018-12-22T14:02:06.772Z,25.92
2018-12-22T14:07:19.387Z,26.90
2018-12-22T14:12:30.603Z,27.95
2018-12-22T14:17:57.579Z,28.99
2018-12-22T14:23:13.226Z,30.19
2018-12-22T14:28:24.735Z,31.09
2018-12-22T14:33:36.639Z,31.51
2018-12-22T14:38:52.565Z,32.23
2018-12-22T14:44:03.963Z,32.32
2018-12-22T14:49:14.544Z,32.79
2018-12-22T14:54:26.492Z,33.45
2018-12-22T14:59:38.687Z,33.83
2018-12-22T15:08:01.625Z,34.39
2018-12-22T15:13:19.211Z,34.80
2018-12-22T15:18:30.759Z,31.13
2018-12-22T15:23:55.629Z,26.76
2018-12-22T15:29:06.570Z,24.22
2018-12-22T15:34:48.390Z,24.05
2018-12-22T15:39:59.571Z,25.04
2018-12-22T15:45:15.199Z,26.81
2018-12-22T15:50:30.620Z,28.28
2018-12-22T15:55:41.814Z,29.38
2018-12-22T16:00:53.363Z,30.43
2018-12-22T16:06:04.306Z,31.25
2018-12-22T16:11:15.619Z,31.71
2018-12-22T16:16:26.787Z,32.18
2018-12-22T16:21:38.457Z,32.67
2018-12-22T16:26:48.793Z,33.54
2018-12-22T16:38:08.622Z,34.46
2018-12-22T16:43:45.428Z,34.67
2018-12-22T16:48:56.826Z,34.77
2018-12-22T16:54:41.029Z,34.84
2018-12-22T16:59:52.452Z,34.41
2018-12-22T17:05:46.321Z,34.21
2018-12-22T17:11:03.839Z,33.65
2018-12-22T17:16:14.846Z,33.63
2018-12-22T17:21:59.834Z,33.89
2018-12-22T17:27:29.813Z,33.77
2018-12-22T17:32:40.452Z,33.34
2018-12-22T17:37:56.993Z,33.56
2018-12-22T17:43:10.789Z,33.72
2018-12-22T17:48:21.637Z,33.21
2018-12-22T17:53:33.892Z,33.48
2018-12-22T18:03:14.708Z,33.67
2018-12-22T18:08:26.217Z,33.62
2018-12-22T18:13:40.876Z,33.91
2018-12-22T18:18:53.326Z,33.83
2018-12-22T18:24:05.013Z,34.09
2018-12-22T18:29:15.550Z,34.15
2018-12-22T18:34:28.201Z,35.04
2018-12-22T18:39:39.692Z,35.38
2018-12-22T18:48:04.537Z,35.42
2018-12-22T18:53:15.768Z,35.54
2018-12-22T18:58:27.699Z,32.16
2018-12-22T19:03:44.695Z,28.54
2018-12-22T19:08:55.558Z,26.11
2018-12-22T19:14:06.579Z,24.22
2018-12-22T19:19:17.534Z,23.71
2018-12-22T19:24:29.456Z,24.89
2018-12-22T19:29:41.627Z,26.44
2018-12-22T19:34:52.600Z,27.97
2018-12-22T19:40:04.695Z,28.88
2018-12-22T19:45:16.275Z,29.99
2018-12-22T19:50:40.508Z,31.47
2018-12-22T19:55:54.346Z,31.95
2018-12-22T20:01:09.448Z,33.02
2018-12-22T20:06:21.514Z,33.46
2018-12-22T20:11:33.314Z,33.61
2018-12-22T20:16:44.663Z,34.20
2018-12-22T20:21:56.682Z,34.35
2018-12-22T20:27:08.723Z,34.75
2018-12-22T20:32:19.702Z,35.36
2018-12-22T20:37:31.828Z,35.09
2018-12-22T20:42:42.810Z,35.55
2018-12-22T20:47:53.634Z,35.87
2018-12-22T20:53:06.639Z,35.72
2018-12-22T20:58:18.796Z,36.11
2018-12-22T21:03:41.609Z,36.13
2018-12-22T21:08:59.993Z,36.09
2018-12-22T21:14:10.703Z,36.69
2018-12-22T21:19:21.962Z,36.72
2018-12-22T21:24:33.487Z,36.44
2018-12-22T21:29:45.195Z,36.68
2018-12-22T21:36:00.353Z,36.75
2018-12-22T21:41:11.945Z,36.93
2018-12-22T21:46:22.665Z,36.96
2018-12-22T21:51:46.890Z,36.91
2018-12-22T21:56:59.313Z,37.07
2018-12-22T22:02:10.763Z,36.90
2018-12-22T22:07:21.573Z,37.00
2018-12-22T22:12:32.772Z,36.90
2018-12-22T22:17:43.336Z,36.74
2018-12-22T22:22:54.864Z,36.88
2018-12-22T22:28:06.683Z,37.16
2018-12-22T22:33:17.795Z,37.19
2018-12-22T22:38:29.539Z,36.80
2018-12-22T22:43:44.738Z,37.17
2018-12-22T22:48:56.491Z,37.01
2018-12-22T22:54:07.713Z,37.29
2018-12-22T22:59:19.620Z,37.23
2018-12-22T23:04:30.676Z,37.20
2018-12-22T23:09:41.978Z,37.26
2018-12-22T23:14:52.598Z,37.01
2018-12-22T23:20:03.865Z,37.32
2018-12-22T23:25:15.723Z,37.18
2018-12-22T23:30:26.632Z,37.41
2018-12-22T23:35:38.225Z,37.61
2018-12-22T23:41:15.430Z,37.55
2018-12-22T23:52:01.983Z,37.50
2018-12-22T23:57:19.456Z,37.97
